createdAt,value
2023-10-23T00:00:24.606Z,8.30
2023-10-23T00:03:13.806Z,10.70
2023-10-23T00:05:42.961Z,9.30
2023-10-23T00:08:11.849Z,8.10
2023-10-23T00:10:41.016Z,8.50
2023-10-23T00:13:10.466Z,13.80
2023-10-23T00:15:38.932Z,10.70
2023-10-23T00:18:07.424Z,7.30
2023-10-23T00:20:36.265Z,6.90
2023-10-23T00:23:04.765Z,9.10
2023-10-23T00:25:34.160Z,14.20
2023-10-23T00:28:04.092Z,13.70
2023-10-23T00:30:37.436Z,9.70
2023-10-23T00:33:06.042Z,8.90
2023-10-23T00:35:35.660Z,9.40
2023-10-23T00:38:04.514Z,10.90
2023-10-23T00:40:34.160Z,10.60
2023-10-23T00:43:20.106Z,9.80
2023-10-23T00:45:52.840Z,11.10
2023-10-23T00:48:22.971Z,13.20
2023-10-23T00:50:52.801Z,10.50
2023-10-23T00:53:29.690Z,12.30
2023-10-23T00:56:00.056Z,9.30
2023-10-23T00:58:29.123Z,9.10
2023-10-23T01:00:59.674Z,11.40
2023-10-23T01:03:28.428Z,14.90
2023-10-23T01:05:57.576Z,8.60
2023-10-23T01:08:26.677Z,12.00
2023-10-23T01:10:57.163Z,11.70
2023-10-23T01:13:27.581Z,10.70
2023-10-23T01:15:56.247Z,7.10
2023-10-23T01:18:24.714Z,10.00
2023-10-23T01:20:53.387Z,8.60
2023-10-23T01:23:27.259Z,9.10
2023-10-23T01:25:56.127Z,10.70
2023-10-23T01:28:24.602Z,9.40
2023-10-23T01:30:52.965Z,10.80
2023-10-23T01:33:21.563Z,10.30
2023-10-23T01:35:50.110Z,13.10
2023-10-23T01:38:19.715Z,10.40
2023-10-23T01:40:48.396Z,11.90
2023-10-23T01:43:18.050Z,12.70
2023-10-23T01:45:46.474Z,11.00
2023-10-23T01:48:15.273Z,7.80
2023-10-23T01:50:43.882Z,7.10
2023-10-23T01:53:12.352Z,9.70
2023-10-23T01:55:40.931Z,12.70
2023-10-23T01:58:09.542Z,9.50
2023-10-23T02:00:38.068Z,8.20
2023-10-23T02:03:06.984Z,9.60
2023-10-23T02:05:36.078Z,10.70
2023-10-23T02:08:05.693Z,5.70
2023-10-23T02:10:34.036Z,7.00
2023-10-23T02:13:03.290Z,10.90
2023-10-23T02:15:31.889Z,9.90
2023-10-23T02:18:00.378Z,6.70
2023-10-23T02:20:30.240Z,5.40
2023-10-23T02:22:59.055Z,9.30
2023-10-23T02:25:27.617Z,6.70
2023-10-23T02:27:58.196Z,6.70
2023-10-23T02:30:27.056Z,7.50
2023-10-23T02:32:55.777Z,9.10
2023-10-23T02:35:24.235Z,7.30
2023-10-23T02:37:53.355Z,9.30
2023-10-23T02:40:23.372Z,7.80
2023-10-23T02:42:52.043Z,7.30
2023-10-23T02:45:20.722Z,8.40
2023-10-23T02:47:49.520Z,9.40
2023-10-23T02:50:18.206Z,6.10
2023-10-23T02:52:47.051Z,8.10
2023-10-23T02:55:16.082Z,6.50
2023-10-23T02:57:44.777Z,7.60
2023-10-23T03:00:16.805Z,7.30
2023-10-23T03:02:45.960Z,11.00
2023-10-23T03:05:15.737Z,10.10
2023-10-23T03:07:44.697Z,10.50
2023-10-23T03:10:13.374Z,9.40
2023-10-23T03:12:41.906Z,7.90
2023-10-23T03:15:10.996Z,5.80
2023-10-23T03:17:40.179Z,5.70
2023-10-23T03:20:10.302Z,6.00
2023-10-23T03:22:39.469Z,11.30
2023-10-23T03:25:09.574Z,11.10
2023-10-23T03:27:38.202Z,10.50
2023-10-23T03:30:07.755Z,8.90
2023-10-23T03:32:36.735Z,11.00
2023-10-23T03:35:06.032Z,12.50
2023-10-23T03:37:34.499Z,11.50
2023-10-23T03:40:02.899Z,11.10
2023-10-23T03:42:32.549Z,10.80
2023-10-23T03:45:02.440Z,10.00
2023-10-23T03:47:30.965Z,10.20
2023-10-23T03:49:59.388Z,12.30
2023-10-23T03:52:28.302Z,8.80
2023-10-23T03:54:56.731Z,7.90
2023-10-23T03:57:25.384Z,11.70
2023-10-23T03:59:54.793Z,11.70
2023-10-23T04:02:23.034Z,12.00
2023-10-23T04:04:51.540Z,8.80
2023-10-23T04:07:20.002Z,8.10
2023-10-23T04:09:48.424Z,11.40
2023-10-23T04:12:16.992Z,7.50
2023-10-23T04:14:48.674Z,6.70
2023-10-23T04:17:17.210Z,6.60
2023-10-23T04:19:49.654Z,6.80
2023-10-23T04:22:17.959Z,7.00
2023-10-23T04:24:48.860Z,10.30
2023-10-23T04:27:17.597Z,12.10
2023-10-23T04:29:46.373Z,16.00
2023-10-23T04:32:15.075Z,9.00
2023-10-23T04:34:43.676Z,11.40
2023-10-23T04:37:12.240Z,7.70
2023-10-23T04:39:41.174Z,11.80
2023-10-23T04:42:09.709Z,13.00
2023-10-23T04:44:38.186Z,7.50
2023-10-23T04:47:06.870Z,8.70
2023-10-23T04:49:35.248Z,10.40
2023-10-23T04:52:04.320Z,13.90
2023-10-23T04:54:32.954Z,9.40
2023-10-23T04:57:01.614Z,12.50
2023-10-23T04:59:30.211Z,11.10
2023-10-23T05:01:58.917Z,12.00
2023-10-23T05:04:34.296Z,10.10
2023-10-23T05:07:03.519Z,7.50
2023-10-23T05:09:33.401Z,9.90
2023-10-23T05:12:02.887Z,12.60
2023-10-23T05:14:38.783Z,9.70
2023-10-23T05:17:09.820Z,12.20
2023-10-23T05:19:38.829Z,10.90
2023-10-23T05:22:07.321Z,14.00
2023-10-23T05:24:35.624Z,10.10
2023-10-23T05:27:04.589Z,9.30
2023-10-23T05:29:33.259Z,10.10
2023-10-23T05:32:01.751Z,8.90
2023-10-23T05:34:30.968Z,9.60
2023-10-23T05:36:59.393Z,9.70
2023-10-23T05:39:28.496Z,6.70
2023-10-23T05:41:57.447Z,12.80
2023-10-23T05:44:29.524Z,9.50
2023-10-23T05:46:59.598Z,9.80
2023-10-23T05:49:29.442Z,9.10
2023-10-23T05:51:58.340Z,10.30
2023-10-23T05:54:27.002Z,14.00
2023-10-23T05:56:55.153Z,8.30
2023-10-23T05:59:23.572Z,6.50
2023-10-23T06:01:52.281Z,11.80
2023-10-23T06:04:20.676Z,12.30
2023-10-23T06:06:49.421Z,10.80
2023-10-23T06:09:18.119Z,8.10
2023-10-23T06:11:46.999Z,9.30
2023-10-23T06:14:15.178Z,4.30
2023-10-23T06:16:43.636Z,6.80
2023-10-23T06:19:12.231Z,10.20
2023-10-23T06:21:40.621Z,7.20
2023-10-23T06:24:09.286Z,7.60
2023-10-23T06:26:37.561Z,10.70
2023-10-23T06:29:06.324Z,5.20
2023-10-23T06:31:34.904Z,8.80
2023-10-23T06:34:03.408Z,6.80
2023-10-23T06:36:33.307Z,9.40
2023-10-23T06:39:01.884Z,11.60
2023-10-23T06:41:31.810Z,9.60
2023-10-23T06:44:00.293Z,14.80
2023-10-23T06:46:28.962Z,8.60
2023-10-23T06:48:57.958Z,10.00
2023-10-23T06:51:26.429Z,5.90
2023-10-23T06:53:55.161Z,6.90
2023-10-23T06:56:23.741Z,5.50
2023-10-23T06:58:52.280Z,5.90
2023-10-23T07:01:30.391Z,8.80
2023-10-23T07:04:07.859Z,7.50
2023-10-23T07:06:37.195Z,7.80
2023-10-23T07:09:06.132Z,7.60
2023-10-23T07:11:34.569Z,9.20
2023-10-23T07:14:03.170Z,13.10
2023-10-23T07:16:31.869Z,12.80
2023-10-23T07:19:00.461Z,11.20
2023-10-23T07:21:28.798Z,12.40
2023-10-23T07:27:40.475Z,12.40
2023-10-23T07:30:09.421Z,12.50
2023-10-23T07:32:38.010Z,16.20
2023-10-23T07:35:09.405Z,17.20
2023-10-23T07:37:39.452Z,10.40
2023-10-23T07:40:08.687Z,9.90
2023-10-23T07:42:37.071Z,8.20
2023-10-23T07:45:06.767Z,9.80
2023-10-23T07:47:35.276Z,13.50
2023-10-23T07:50:06.095Z,15.70
2023-10-23T07:52:34.236Z,10.60
2023-10-23T07:55:02.932Z,9.00
2023-10-23T07:57:31.484Z,10.20
2023-10-23T08:00:00.071Z,7.70
2023-10-23T08:02:28.734Z,13.80
2023-10-23T08:04:57.421Z,8.80
2023-10-23T08:07:26.326Z,10.80
2023-10-23T08:09:55.043Z,9.20
2023-10-23T08:12:23.326Z,8.10
2023-10-23T08:14:52.473Z,8.20
2023-10-23T08:17:41.396Z,7.90
2023-10-23T08:20:10.984Z,8.80
2023-10-23T08:22:39.552Z,11.40
2023-10-23T08:25:08.663Z,11.40
2023-10-23T08:27:37.043Z,8.80
2023-10-23T08:30:06.413Z,9.00
2023-10-23T08:32:49.637Z,7.50
2023-10-23T08:35:21.428Z,9.20
2023-10-23T08:37:49.947Z,8.30
2023-10-23T08:40:18.703Z,7.10
2023-10-23T08:42:47.928Z,10.20
2023-10-23T08:45:17.895Z,6.50
2023-10-23T08:47:47.856Z,8.00
2023-10-23T08:50:17.200Z,6.40
2023-10-23T08:52:50.869Z,5.20
2023-10-23T08:55:21.123Z,7.50
2023-10-23T08:57:54.402Z,8.60
2023-10-23T09:00:26.391Z,8.70
2023-10-23T09:02:56.266Z,7.80
2023-10-23T09:26:29.419Z,7.90
2023-10-23T09:28:58.369Z,7.10
2023-10-23T09:31:25.607Z,7.30
2023-10-23T09:33:52.898Z,6.30
2023-10-23T09:36:21.386Z,7.10
2023-10-23T09:38:59.948Z,7.80
2023-10-23T09:41:29.351Z,7.70
2023-10-23T09:43:58.214Z,7.40
2023-10-23T09:46:29.521Z,8.00
2023-10-23T09:49:01.428Z,6.30
2023-10-23T09:51:32.762Z,12.20
2023-10-23T09:54:07.371Z,3.50
2023-10-23T09:56:35.723Z,7.20
2023-10-23T09:59:08.708Z,7.70
2023-10-23T10:01:44.096Z,7.60
2023-10-23T10:04:24.079Z,8.10
2023-10-23T10:07:06.394Z,7.70
2023-10-23T10:09:38.503Z,14.70
2023-10-23T10:12:11.173Z,5.70
2023-10-23T10:14:42.381Z,6.60
2023-10-23T10:17:11.958Z,8.00
2023-10-23T10:19:41.365Z,7.50
2023-10-23T10:22:20.996Z,6.10
2023-10-23T10:24:49.673Z,7.80
2023-10-23T10:27:17.442Z,7.30
2023-10-23T10:29:45.950Z,8.80
2023-10-23T10:32:15.594Z,6.80
2023-10-23T10:34:46.640Z,4.90
2023-10-23T10:39:53.333Z,6.30
2023-10-23T10:42:29.877Z,4.80
2023-10-23T10:45:08.606Z,5.90
2023-10-23T10:47:42.406Z,7.00
2023-10-23T10:50:11.219Z,8.50
2023-10-23T10:52:40.222Z,8.10
2023-10-23T10:55:09.999Z,11.00
2023-10-23T10:57:47.535Z,7.90
2023-10-23T11:00:15.887Z,5.30
2023-10-23T11:02:43.337Z,7.00
2023-10-23T11:05:13.480Z,9.60
2023-10-23T11:07:41.675Z,6.50
2023-10-23T11:10:10.246Z,6.10
2023-10-23T11:12:39.678Z,6.00
2023-10-23T11:15:07.708Z,7.70
2023-10-23T11:17:37.244Z,8.30
2023-10-23T11:20:09.279Z,4.80
2023-10-23T11:22:39.289Z,6.10
2023-10-23T11:25:09.792Z,5.60
2023-10-23T11:27:37.997Z,7.70
2023-10-23T11:30:07.085Z,8.30
2023-10-23T11:32:35.101Z,6.00
2023-10-23T11:35:05.828Z,9.20
2023-10-23T11:37:38.049Z,5.40
2023-10-23T11:40:07.647Z,9.30
2023-10-23T11:42:50.278Z,4.70
2023-10-23T11:45:18.435Z,6.40
2023-10-23T11:47:46.757Z,5.10
2023-10-23T11:50:14.944Z,10.90
2023-10-23T11:52:48.492Z,7.40
2023-10-23T11:55:17.108Z,6.80
2023-10-23T11:57:51.329Z,7.60
2023-10-23T12:00:21.178Z,9.90
2023-10-23T12:02:48.992Z,6.30
2023-10-23T12:05:18.980Z,11.10
2023-10-23T12:07:48.116Z,9.20
2023-10-23T12:10:19.798Z,6.10
2023-10-23T12:12:48.367Z,5.60
2023-10-23T12:15:16.395Z,5.90
2023-10-23T12:17:43.777Z,6.40
2023-10-23T12:20:12.591Z,6.20
2023-10-23T12:22:45.368Z,9.10
2023-10-23T12:25:14.172Z,6.60
2023-10-23T12:27:42.079Z,5.60
2023-10-23T12:30:15.039Z,6.90
2023-10-23T12:33:16.249Z,4.50
2023-10-23T12:35:31.032Z,5.80
2023-10-23T12:37:58.942Z,6.60
2023-10-23T12:40:30.264Z,10.30
2023-10-23T12:43:00.710Z,5.90
2023-10-23T12:45:27.874Z,8.70
2023-10-23T12:47:55.049Z,4.90
2023-10-23T12:50:22.126Z,4.90
2023-10-23T12:52:49.681Z,5.10
2023-10-23T21:26:35.015Z,19.90
2023-10-23T21:29:20.193Z,19.20
2023-10-23T21:31:50.679Z,18.20
2023-10-23T21:34:20.608Z,20.30
2023-10-23T21:36:49.442Z,21.80
2023-10-23T21:39:17.810Z,20.40
2023-10-23T21:41:47.135Z,20.40
2023-10-23T21:44:15.505Z,19.40
2023-10-23T21:46:43.932Z,20.00
2023-10-23T21:49:12.839Z,18.00
2023-10-23T21:51:42.390Z,19.20
2023-10-23T21:54:11.711Z,15.50
2023-10-23T21:57:21.049Z,17.70
2023-10-23T21:59:30.030Z,17.20
2023-10-23T22:01:58.910Z,20.90
2023-10-23T22:04:27.957Z,19.50
2023-10-23T22:06:57.233Z,15.80
2023-10-23T22:09:27.246Z,13.00
2023-10-23T22:11:56.211Z,18.40
2023-10-23T22:14:25.113Z,19.10
2023-10-23T22:16:53.719Z,18.10
2023-10-23T22:19:22.396Z,15.60
2023-10-23T22:21:50.812Z,18.90
2023-10-23T22:24:19.228Z,16.20
2023-10-23T22:26:48.284Z,20.90
2023-10-23T22:29:16.823Z,18.00
2023-10-23T22:31:45.646Z,14.10
2023-10-23T22:34:14.382Z,16.10
2023-10-23T22:36:43.013Z,17.40
2023-10-23T22:39:12.074Z,15.10
2023-10-23T22:41:41.692Z,16.50
2023-10-23T22:44:11.191Z,21.40
2023-10-23T22:46:39.484Z,17.80
2023-10-23T22:49:08.220Z,14.20
2023-10-23T22:51:37.708Z,17.80
2023-10-23T22:54:07.266Z,24.20
2023-10-23T22:56:37.382Z,15.40
2023-10-23T22:59:06.581Z,17.20
2023-10-23T23:01:36.449Z,16.50
2023-10-23T23:04:05.690Z,17.40
2023-10-23T23:06:35.449Z,16.00
2023-10-23T23:09:05.286Z,12.60
2023-10-23T23:11:34.247Z,18.00
2023-10-23T23:14:03.620Z,16.80
2023-10-23T23:16:37.225Z,19.70
2023-10-23T23:19:11.954Z,17.00
2023-10-23T23:21:46.642Z,20.40
2023-10-23T23:24:15.233Z,17.20
2023-10-23T23:26:43.839Z,16.70
2023-10-23T23:29:12.224Z,17.90
2023-10-23T23:31:40.995Z,14.70
2023-10-23T23:34:09.773Z,19.00
2023-10-23T23:36:38.578Z,16.60
2023-10-23T23:39:06.989Z,15.50
2023-10-23T23:41:35.340Z,18.50
2023-10-23T23:44:04.062Z,18.10
2023-10-23T23:46:32.380Z,16.70
2023-10-23T23:49:01.076Z,15.80
2023-10-23T23:51:29.859Z,13.70
2023-10-23T23:53:58.459Z,18.00
2023-10-23T23:56:27.026Z,14.20
2023-10-23T23:58:55.485Z,15.50
